Time;durP1;ratioP1;P1;durP2;ratioP2;P2;SDS_P1;SDS_P2;PMS_P1;PMS_P2;Temp;Humidity;BMP_temperature;BMP_pressure;BME280_temperature;BME280_humidity;BME280_pressure;Samples;Min_cycle;Max_cycle;Signal;HPM_P1;HPM_P2
2023/10/03 00:02:00;;;;;;;8.15;7.35;;;;;;;13.05;100.00;96764.19;6341296;22;19999;-74
2023/10/03 00:04:39;;;;;;;9.45;7.22;;;;;;;12.98;100.00;96776.25;6288102;22;20002;-73
2023/10/03 00:07:04;;;;;;;9.25;7.53;;;;;;;12.94;100.00;96766.91;6343174;22;19994;-73
2023/10/03 00:09:30;;;;;;;8.82;7.25;;;;;;;12.88;100.00;96774.38;6343191;22;19998;-74
2023/10/03 00:12:02;;;;;;;9.80;7.60;;;;;;;12.90;100.00;96771.59;6343897;22;19995;-74
2023/10/03 00:14:30;;;;;;;7.90;7.10;;;;;;;12.91;100.00;96768.00;6344105;22;20068;-74
2023/10/03 00:17:04;;;;;;;8.77;7.13;;;;;;;12.88;100.00;96769.09;6344502;22;19999;-74
2023/10/03 00:19:35;;;;;;;10.48;7.90;;;;;;;12.83;100.00;96765.19;6316075;22;20018;-73
2023/10/03 00:22:03;;;;;;;8.73;7.35;;;;;;;12.81;100.00;96767.09;6316521;22;20006;-74
2023/10/03 00:24:29;;;;;;;8.95;8.05;;;;;;;12.83;100.00;96766.00;6314330;22;20515;-73
2023/10/03 00:27:00;;;;;;;7.57;6.90;;;;;;;12.83;100.00;96758.06;6315947;22;20028;-74
2023/10/03 00:29:29;;;;;;;11.35;7.38;;;;;;;12.82;100.00;96756.41;6316775;22;20067;-73
2023/10/03 00:31:58;;;;;;;8.80;7.22;;;;;;;12.71;100.00;96756.44;6344284;22;20507;-74
2023/10/03 00:34:36;;;;;;;8.32;7.35;;;;;;;12.68;100.00;96752.28;6315774;22;20002;-74
2023/10/03 00:37:03;;;;;;;8.30;7.50;;;;;;;12.69;100.00;96750.47;6315544;22;20002;-74
2023/10/03 00:39:28;;;;;;;8.23;7.43;;;;;;;12.69;100.00;96755.75;6343834;22;20074;-73
2023/10/03 00:41:59;;;;;;;8.25;7.38;;;;;;;12.60;100.00;96763.50;6290488;22;19998;-74
2023/10/03 00:44:28;;;;;;;10.98;7.78;;;;;;;12.59;100.00;96748.59;6316175;22;20638;-74
2023/10/03 00:46:54;;;;;;;7.90;7.18;;;;;;;12.55;100.00;96757.75;6316022;22;20025;-74
2023/10/03 00:49:31;;;;;;;10.10;7.82;;;;;;;12.51;100.00;96753.69;6344201;22;20085;-74
2023/10/03 00:52:00;;;;;;;12.88;7.35;;;;;;;12.49;100.00;96753.00;6344437;22;20030;-74
2023/10/03 00:54:30;;;;;;;8.85;7.75;;;;;;;12.47;100.00;96754.91;6315850;22;20028;-74
2023/10/03 00:56:56;;;;;;;8.45;7.63;;;;;;;12.49;100.00;96742.44;6290687;22;20026;-74
2023/10/03 00:59:29;;;;;;;7.97;7.05;;;;;;;12.46;100.00;96737.38;6318143;22;20391;-74
2023/10/03 01:02:03;;;;;;;8.30;7.55;;;;;;;12.45;100.00;96735.72;6316742;22;19999;-74
2023/10/03 01:04:34;;;;;;;8.38;7.25;;;;;;;12.46;100.00;96729.47;6344083;22;20053;-74
2023/10/03 01:07:02;;;;;;;8.32;7.57;;;;;;;12.45;100.00;96727.78;6292810;22;20021;-73
2023/10/03 01:09:33;;;;;;;8.93;7.32;;;;;;;12.44;100.00;96731.38;6290954;22;20006;-73
2023/10/03 01:12:03;;;;;;;8.77;7.88;;;;;;;12.42;100.00;96738.59;6344415;22;19999;-74
2023/10/03 01:14:38;;;;;;;11.30;7.85;;;;;;;12.40;100.00;96733.47;6344590;22;20113;-74
2023/10/03 01:17:06;;;;;;;8.88;7.97;;;;;;;12.41;100.00;96724.59;6315287;22;20007;-74
2023/10/03 01:19:35;;;;;;;8.48;7.55;;;;;;;12.44;100.00;96726.97;6313152;22;20083;-74
2023/10/03 01:22:01;;;;;;;10.35;7.85;;;;;;;12.44;100.00;96721.69;6313694;22;20011;-74
2023/10/03 01:24:27;;;;;;;9.52;7.72;;;;;;;12.46;100.00;96721.53;6341709;22;19994;-73
2023/10/03 01:26:53;;;;;;;8.85;8.15;;;;;;;12.45;100.00;96711.94;6342201;22;20005;-74
2023/10/03 01:29:26;;;;;;;11.55;8.20;;;;;;;12.46;100.00;96710.97;6314869;22;20002;-73
2023/10/03 01:31:55;;;;;;;10.27;7.65;;;;;;;12.37;100.00;96714.38;6289428;22;19995;-74
2023/10/03 01:34:24;;;;;;;8.68;7.65;;;;;;;12.36;100.00;96712.72;6314963;22;19990;-74
2023/10/03 01:36:49;;;;;;;8.18;7.38;;;;;;;12.37;100.00;96707.28;6263983;22;20010;-74
2023/10/03 01:39:15;;;;;;;9.38;7.88;;;;;;;12.32;100.00;96701.56;6315020;22;19998;-73
2023/10/03 01:41:42;;;;;;;8.23;7.53;;;;;;;12.24;100.00;96704.00;6342235;22;20009;-73
2023/10/03 01:44:08;;;;;;;10.02;8.00;;;;;;;12.23;100.00;96695.25;6342271;22;20503;-74
2023/10/03 01:46:42;;;;;;;9.25;8.25;;;;;;;12.21;100.00;96702.47;6315026;22;19998;-74
2023/10/03 01:49:08;;;;;;;8.38;7.60;;;;;;;12.16;100.00;96696.72;6314303;22;20030;-74
2023/10/03 01:51:40;;;;;;;8.82;8.07;;;;;;;12.16;100.00;96704.66;6315180;22;20458;-73
2023/10/03 01:54:08;;;;;;;8.40;7.68;;;;;;;12.14;100.00;96694.19;6315178;22;20038;-74
2023/10/03 01:56:44;;;;;;;8.65;7.85;;;;;;;12.12;100.00;96690.03;6313948;22;20059;-74
2023/10/03 01:59:12;;;;;;;9.55;8.73;;;;;;;12.10;100.00;96678.78;6313783;22;20432;-74
2023/10/03 02:01:37;;;;;;;9.27;8.38;;;;;;;12.08;100.00;96685.97;6313673;22;19999;-73
2023/10/03 02:04:03;;;;;;;9.32;8.52;;;;;;;12.10;100.00;96671.66;6313985;22;20022;-73
2023/10/03 02:06:36;;;;;;;9.30;8.13;;;;;;;12.07;100.00;96679.03;6288289;22;20071;-73
2023/10/03 02:09:08;;;;;;;8.65;7.90;;;;;;;12.02;100.00;96664.38;6289815;22;20365;-73
2023/10/03 02:11:39;;;;;;;10.68;8.32;;;;;;;12.04;100.00;96673.00;6341719;22;19995;-74
2023/10/03 02:14:08;;;;;;;8.57;7.65;;;;;;;12.02;100.00;96677.59;6312324;22;20020;-73
2023/10/03 02:16:43;;;;;;;9.57;8.20;;;;;;;12.01;100.00;96670.63;6289678;22;20038;-74
2023/10/03 02:19:09;;;;;;;9.60;8.25;;;;;;;12.00;100.00;96674.19;6341171;22;20011;-74
2023/10/03 02:21:42;;;;;;;8.43;7.63;;;;;;;11.97;100.00;96665.72;6314026;22;20528;-73
2023/10/03 02:24:08;;;;;;;10.57;7.75;;;;;;;11.92;100.00;96668.72;6314592;22;20049;-74
2023/10/03 02:26:42;;;;;;;8.60;7.78;;;;;;;11.89;100.00;96669.00;6314074;22;20010;-74
2023/10/03 02:29:10;;;;;;;10.82;7.43;;;;;;;11.91;100.00;96669.69;6313849;22;20010;-74
2023/10/03 02:31:39;;;;;;;8.88;7.75;;;;;;;11.90;100.00;96666.19;6315968;22;19995;-73
2023/10/03 02:34:08;;;;;;;9.23;8.32;;;;;;;11.86;100.00;96679.78;6289244;22;20032;-73
2023/10/03 02:36:44;;;;;;;8.98;7.97;;;;;;;11.86;100.00;96677.16;6342205;22;20007;-74
2023/10/03 02:39:13;;;;;;;9.88;8.20;;;;;;;11.80;100.00;96675.00;6341674;22;20006;-73
2023/10/03 02:41:43;;;;;;;9.48;7.70;;;;;;;11.79;100.00;96673.31;6314802;22;20003;-73
2023/10/03 02:44:09;;;;;;;8.95;8.05;;;;;;;11.82;100.00;96670.44;6341776;22;21103;-74
2023/10/03 02:46:40;;;;;;;10.70;7.70;;;;;;;11.83;100.00;96666.84;6314214;22;20040;-73
2023/10/03 02:49:08;;;;;;;9.25;8.18;;;;;;;11.82;100.00;96657.25;6313339;22;20003;-74
2023/10/03 02:51:37;;;;;;;9.98;7.80;;;;;;;11.77;100.00;96659.44;6314650;22;19999;-73
2023/10/03 02:54:04;;;;;;;8.70;7.78;;;;;;;11.77;100.00;96649.72;6313372;22;20057;-73
2023/10/03 02:56:39;;;;;;;8.30;7.60;;;;;;;11.73;100.00;96646.50;6341783;22;20005;-74
2023/10/03 02:59:09;;;;;;;10.68;8.73;;;;;;;11.71;100.00;96647.56;6315866;22;20589;-74
2023/10/03 03:01:35;;;;;;;10.25;8.70;;;;;;;11.71;100.00;96642.28;6341620;22;20006;-73
2023/10/03 03:04:02;;;;;;;9.98;8.48;;;;;;;11.71;100.00;96644.94;6341058;22;20524;-73
2023/10/03 03:06:39;;;;;;;10.00;7.72;;;;;;;11.72;100.00;96647.47;6341564;22;20452;-72
2023/10/03 03:09:08;;;;;;;8.75;7.93;;;;;;;11.70;100.00;96646.75;6313513;22;19999;-73
2023/10/03 03:11:47;;;;;;;9.50;7.90;;;;;;;11.69;100.00;96644.22;6288526;22;19991;-73
2023/10/03 03:14:14;;;;;;;9.02;7.50;;;;;;;11.76;100.00;96655.97;6339821;22;20015;-73
2023/10/03 03:16:42;;;;;;;8.95;8.05;;;;;;;11.74;100.00;96655.25;6314577;22;19999;-73
2023/10/03 03:19:08;;;;;;;10.80;9.77;;;;;;;11.67;100.00;96651.44;6314144;22;20001;-73
2023/10/03 03:21:38;;;;;;;11.77;8.65;;;;;;;11.66;100.00;96644.47;6313319;22;20403;-73
2023/10/03 03:24:15;;;;;;;9.98;8.65;;;;;;;11.64;100.00;96647.25;6341020;22;20005;-73
2023/10/03 03:26:47;;;;;;;9.07;8.18;;;;;;;11.69;100.00;96653.00;6291751;22;20002;-73
2023/10/03 03:29:31;;;;;;;8.95;7.90;;;;;;;11.70;100.00;96652.03;6289452;22;20011;-73
2023/10/03 03:32:03;;;;;;;9.23;7.97;;;;;;;11.69;100.00;96647.72;6313528;22;20078;-73
2023/10/03 03:34:32;;;;;;;9.57;7.57;;;;;;;11.61;100.00;96643.06;6313046;22;20042;-73
2023/10/03 03:37:37;;;;;;;8.60;7.78;;;;;;;11.60;100.00;96644.03;6312908;22;20053;-73
2023/10/03 03:40:10;;;;;;;11.80;7.93;;;;;;;11.61;100.00;96644.88;6315333;22;20002;-74
2023/10/03 03:42:37;;;;;;;8.88;7.97;;;;;;;11.55;100.00;96634.81;6313261;22;20010;-73
2023/10/03 03:45:10;;;;;;;8.65;7.38;;;;;;;11.49;100.00;96646.69;6313791;22;20052;-74
2023/10/03 03:47:36;;;;;;;8.55;7.75;;;;;;;11.52;100.00;96633.28;6340886;22;20001;-74
2023/10/03 03:50:10;;;;;;;10.18;8.10;;;;;;;11.52;100.00;96645.59;6340405;22;19998;-74
2023/10/03 03:52:43;;;;;;;8.18;7.43;;;;;;;11.51;100.00;96636.88;6340826;22;20071;-73
2023/10/03 03:55:11;;;;;;;11.68;8.10;;;;;;;11.44;100.00;96638.31;6311821;22;20002;-75
2023/10/03 03:57:50;;;;;;;10.20;8.13;;;;;;;11.48;100.00;96644.19;6314271;22;20418;-74
2023/10/03 04:00:19;;;;;;;8.05;7.25;;;;;;;11.50;100.00;96639.63;6288613;22;19999;-75
2023/10/03 04:02:49;;;;;;;10.50;8.82;;;;;;;11.50;100.00;96640.47;6341064;22;20078;-74
2023/10/03 04:05:18;;;;;;;9.13;8.15;;;;;;;11.48;100.00;96647.63;6341204;22;20046;-73
2023/10/03 04:07:43;;;;;;;11.80;8.20;;;;;;;11.41;100.00;96651.75;6313055;22;19999;-77
2023/10/03 04:10:12;;;;;;;10.50;7.72;;;;;;;11.38;100.00;96642.28;6340102;22;20001;-76
2023/10/03 04:12:44;;;;;;;9.05;8.15;;;;;;;11.38;100.00;96652.00;6314032;22;20005;-74
2023/10/03 04:15:18;;;;;;;10.18;8.70;;;;;;;11.40;100.00;96647.44;6313478;22;20022;-76
2023/10/03 04:17:52;;;;;;;9.13;7.75;;;;;;;11.40;100.00;96648.28;6313128;22;20087;-73
2023/10/03 04:20:38;;;;;;;10.25;8.68;;;;;;;11.36;100.00;96651.28;6341153;22;20078;-74
2023/10/03 04:23:05;;;;;;;10.10;9.13;;;;;;;11.30;100.00;96642.06;6317472;22;20508;-74
2023/10/03 04:25:33;;;;;;;9.40;8.02;;;;;;;11.23;100.00;96646.97;6339956;22;19999;-73
2023/10/03 04:28:05;;;;;;;12.27;8.80;;;;;;;11.24;100.00;96653.09;6340425;22;20061;-73
2023/10/03 04:30:31;;;;;;;8.98;8.05;;;;;;;11.24;100.00;96648.66;6341053;22;20003;-74
2023/10/03 04:32:57;;;;;;;9.82;8.70;;;;;;;11.26;100.00;96640.63;6339779;22;20068;-73
2023/10/03 04:35:24;;;;;;;8.98;8.18;;;;;;;11.24;100.00;96658.38;6312633;22;19994;-73
2023/10/03 04:37:57;;;;;;;12.02;8.55;;;;;;;11.21;100.00;96659.44;6340152;22;20056;-73
2023/10/03 04:40:34;;;;;;;9.07;8.00;;;;;;;11.20;100.00;96659.59;6313766;22;20006;-73
2023/10/03 04:43:06;;;;;;;12.55;9.90;;;;;;;11.13;100.00;96646.88;6340380;22;20002;-73
2023/10/03 04:45:32;;;;;;;11.27;9.70;;;;;;;11.14;100.00;96651.19;6314176;22;20010;-73
2023/10/03 04:47:58;;;;;;;16.30;9.55;;;;;;;11.16;100.00;96653.72;6313302;22;20442;-73
2023/10/03 04:50:25;;;;;;;10.25;9.05;;;;;;;11.17;100.00;96648.34;6286989;22;20682;-73
2023/10/03 04:52:56;;;;;;;11.45;8.30;;;;;;;11.21;100.00;96658.63;6342717;22;20411;-73
2023/10/03 04:55:23;;;;;;;13.15;9.02;;;;;;;11.23;100.00;96654.88;6315464;22;20010;-73
2023/10/03 04:57:50;;;;;;;12.18;9.00;;;;;;;11.25;100.00;96660.06;6314455;22;19994;-73
2023/10/03 05:00:20;;;;;;;12.30;9.70;;;;;;;11.23;100.00;96665.44;6288520;22;20049;-73
2023/10/03 05:02:49;;;;;;;15.48;11.10;;;;;;;11.22;100.00;96665.56;6315582;22;20041;-73
2023/10/03 05:05:22;;;;;;;10.45;9.10;;;;;;;11.26;100.00;96665.19;6314617;22;20386;-73
2023/10/03 05:07:54;;;;;;;10.93;9.82;;;;;;;11.28;100.00;96672.97;6316125;22;19995;-73
2023/10/03 05:10:23;;;;;;;14.05;9.65;;;;;;;11.29;100.00;96675.50;6342836;22;20002;-73
2023/10/03 05:12:54;;;;;;;12.23;8.73;;;;;;;11.34;100.00;96680.41;6342296;22;20078;-74
2023/10/03 05:15:20;;;;;;;9.45;8.23;;;;;;;11.32;100.00;96682.31;6341812;22;20042;-73
2023/10/03 05:17:48;;;;;;;14.23;8.70;;;;;;;11.30;100.00;96682.47;6315262;22;20072;-73
2023/10/03 05:20:17;;;;;;;11.27;8.30;;;;;;;11.29;100.00;96690.47;6341931;22;20340;-73
2023/10/03 05:22:49;;;;;;;12.45;9.60;;;;;;;11.26;100.00;96688.91;6288615;22;20463;-73
2023/10/03 05:25:19;;;;;;;13.45;10.77;;;;;;;11.28;100.00;96689.66;6341670;22;20378;-73
2023/10/03 05:27:49;;;;;;;21.95;14.80;;;;;;;11.28;100.00;96688.81;6341906;22;19995;-73
2023/10/03 05:30:15;;;;;;;26.90;16.70;;;;;;;11.22;100.00;96689.28;6313941;22;20005;-73
2023/10/03 05:32:44;;;;;;;23.63;15.20;;;;;;;11.21;100.00;96677.06;6341836;22;19995;-72
2023/10/03 05:35:12;;;;;;;29.13;16.10;;;;;;;11.21;100.00;96687.63;6314457;22;20072;-73
2023/10/03 05:37:40;;;;;;;24.45;15.80;;;;;;;11.23;100.00;96680.44;6288168;22;20002;-73
2023/10/03 05:40:11;;;;;;;25.77;16.05;;;;;;;11.21;100.00;96684.97;6314311;22;20006;-74
2023/10/03 05:42:49;;;;;;;26.77;16.73;;;;;;;11.22;100.00;96689.28;6341067;22;20079;-74
2023/10/03 05:45:17;;;;;;;26.13;15.18;;;;;;;11.20;100.00;96685.94;6312285;22;20481;-73
2023/10/03 05:47:45;;;;;;;18.92;13.32;;;;;;;11.18;100.00;96684.28;6312551;22;20018;-74
2023/10/03 05:50:11;;;;;;;22.73;14.07;;;;;;;11.21;100.00;96683.16;6340753;22;20379;-74
2023/10/03 05:52:41;;;;;;;18.55;13.02;;;;;;;11.18;100.00;96686.91;6313015;22;20005;-75
2023/10/03 05:55:08;;;;;;;15.65;12.32;;;;;;;11.21;100.00;96677.91;6307969;22;20002;-81
2023/10/03 05:57:33;;;;;;;18.38;13.32;;;;;;;11.25;100.00;96681.13;6260576;22;20554;-79
2023/10/03 06:00:09;;;;;;;18.10;12.35;;;;;;;11.29;100.00;96682.56;6341543;22;20065;-77
2023/10/03 06:02:57;;;;;;;20.90;12.35;;;;;;;11.36;100.00;96685.56;6313618;22;20086;-79
2023/10/03 06:05:22;;;;;;;16.20;11.10;;;;;;;11.38;100.00;96684.47;6340118;22;20003;-81
2023/10/03 06:07:49;;;;;;;19.02;12.43;;;;;;;11.36;100.00;96689.00;6314392;22;19995;-80
2023/10/03 06:10:16;;;;;;;20.52;13.52;;;;;;;11.38;100.00;96695.00;6342284;22;20002;-81
2023/10/03 06:12:43;;;;;;;22.70;13.82;;;;;;;11.38;100.00;96689.72;6287383;22;20048;-79
2023/10/03 06:15:12;;;;;;;22.15;11.70;;;;;;;11.43;100.00;96695.50;6310998;22;20062;-79
2023/10/03 06:17:42;;;;;;;16.00;11.05;;;;;;;11.43;100.00;96698.13;6289388;22;20439;-80
2023/10/03 06:20:15;;;;;;;18.33;12.60;;;;;;;11.46;100.00;96699.66;6311607;22;20007;-78
2023/10/03 06:22:44;;;;;;;22.25;13.25;;;;;;;11.52;100.00;96707.09;6314605;22;20084;-81
2023/10/03 06:25:12;;;;;;;21.10;12.23;;;;;;;11.56;100.00;96712.94;6263594;22;19999;-81
2023/10/03 06:27:39;;;;;;;17.40;11.63;;;;;;;11.59;100.00;96710.06;6312161;22;20029;-83
2023/10/03 06:30:11;;;;;;;17.08;11.70;;;;;;;11.63;100.00;96713.31;6313171;22;20032;-83
2023/10/03 06:32:36;;;;;;;21.90;11.32;;;;;;;11.66;100.00;96724.47;6340647;22;20015;-83
2023/10/03 06:35:09;;;;;;;15.50;10.82;;;;;;;11.68;100.00;96727.81;6310939;22;20005;-80
2023/10/03 06:37:35;;;;;;;18.08;11.45;;;;;;;11.70;100.00;96731.16;6312067;22;20002;-76
2023/10/03 06:40:06;;;;;;;16.08;11.50;;;;;;;11.72;100.00;96723.13;6312759;22;20042;-76
2023/10/03 06:42:37;;;;;;;16.80;11.07;;;;;;;11.76;100.00;96735.09;6313198;22;20007;-73
2023/10/03 06:45:13;;;;;;;16.75;10.95;;;;;;;11.78;100.00;96738.47;6315900;22;20002;-76
2023/10/03 06:47:41;;;;;;;19.35;10.02;;;;;;;11.79;100.00;96734.84;6288645;22;20416;-75
2023/10/03 06:50:09;;;;;;;12.00;9.68;;;;;;;11.85;100.00;96733.53;6310650;22;20257;-76
2023/10/03 06:52:35;;;;;;;12.15;9.60;;;;;;;11.85;100.00;96730.91;6313406;22;20006;-75
2023/10/03 06:55:06;;;;;;;14.13;9.75;;;;;;;11.78;100.00;96737.59;6312551;22;20002;-75
2023/10/03 06:57:33;;;;;;;17.42;10.02;;;;;;;11.75;100.00;96738.72;6313802;22;20006;-75
2023/10/03 06:59:59;;;;;;;24.73;11.57;;;;;;;11.79;100.00;96739.28;6287601;22;19998;-76
2023/10/03 07:02:31;;;;;;;18.55;11.02;;;;;;;11.72;100.00;96731.88;6340500;22;20450;-75
2023/10/03 07:04:57;;;;;;;15.98;10.40;;;;;;;11.73;100.00;96725.63;6313596;22;20445;-75
2023/10/03 07:07:27;;;;;;;21.85;11.07;;;;;;;11.72;100.00;96733.69;6340281;22;20442;-76
2023/10/03 07:09:53;;;;;;;16.08;12.20;;;;;;;11.72;100.00;96734.50;6312700;22;19999;-75
2023/10/03 07:12:29;;;;;;;22.52;11.63;;;;;;;11.79;100.00;96731.38;6287522;22;19995;-75
2023/10/03 07:14:57;;;;;;;;;;;;;;;11.81;100.00;96740.84;6340799;22;20069;-75
2023/10/03 07:17:29;;;;;;;17.63;11.98;;;;;;;11.82;100.00;96733.75;6287642;22;19906;-76
2023/10/03 07:19:56;;;;;;;17.33;10.75;;;;;;;11.96;100.00;96737.94;6287072;22;20031;-76
2023/10/03 07:22:30;;;;;;;17.73;11.40;;;;;;;11.94;100.00;96739.88;6340806;22;20018;-75
2023/10/03 07:24:56;;;;;;;15.93;11.05;;;;;;;11.92;100.00;96750.53;6340873;22;19998;-75
2023/10/03 07:27:29;;;;;;;13.30;9.60;;;;;;;11.97;100.00;96748.34;6287470;22;20017;-75
2023/10/03 07:29:55;;;;;;;11.68;8.40;;;;;;;12.23;100.00;96749.88;6340814;22;19995;-75
2023/10/03 07:32:20;;;;;;;11.57;8.50;;;;;;;12.35;100.00;96750.66;6340798;22;20010;-74
2023/10/03 07:34:47;;;;;;;9.38;8.25;;;;;;;12.44;100.00;96750.72;6287974;22;19999;-76
2023/10/03 07:37:16;;;;;;;9.80;7.80;;;;;;;12.61;100.00;96759.88;6339399;22;20025;-76
2023/10/03 07:39:42;;;;;;;8.38;7.38;;;;;;;12.77;100.00;96766.53;6340238;22;20009;-76
2023/10/03 07:42:14;;;;;;;9.73;8.02;;;;;;;12.94;100.00;96766.91;6339821;22;20030;-76
2023/10/03 07:44:40;;;;;;;9.48;8.48;;;;;;;13.12;100.00;96762.66;6312872;22;20018;-76
2023/10/03 07:47:06;;;;;;;13.27;8.95;;;;;;;13.25;100.00;96764.28;6340311;22;20006;-76
2023/10/03 07:49:34;;;;;;;12.25;7.55;;;;;;;13.37;100.00;96765.84;6285391;22;20006;-76
2023/10/03 07:52:04;;;;;;;10.52;7.63;;;;;;;13.48;100.00;96758.81;6312815;22;20305;-76
2023/10/03 07:54:37;;;;;;;7.35;6.43;;;;;;;13.58;100.00;96763.19;6339868;22;19998;-76
2023/10/03 07:57:06;;;;;;;8.15;6.65;;;;;;;13.74;100.00;96748.59;6286693;22;20653;-76
2023/10/03 07:59:32;;;;;;;9.20;6.47;;;;;;;13.85;100.00;96761.72;6339375;22;19999;-76
2023/10/03 08:02:05;;;;;;;14.00;7.25;;;;;;;13.98;100.00;96773.88;6340089;22;20006;-76
2023/10/03 08:04:33;;;;;;;8.70;6.82;;;;;;;14.06;100.00;96767.88;6314002;22;19999;-76
2023/10/03 08:07:04;;;;;;;11.48;6.65;;;;;;;14.17;100.00;96770.41;6311960;22;20017;-75
2023/10/03 08:09:34;;;;;;;7.07;6.38;;;;;;;14.28;100.00;96775.56;6312313;22;20052;-76
2023/10/03 08:12:05;;;;;;;6.43;5.80;;;;;;;14.34;100.00;96766.22;6288154;22;20093;-76
2023/10/03 08:14:34;;;;;;;7.82;5.80;;;;;;;14.46;100.00;96770.41;6311367;22;20007;-76
2023/10/03 08:17:00;;;;;;;6.32;5.72;;;;;;;14.59;100.00;96753.41;6341714;22;19998;-76
2023/10/03 08:19:28;;;;;;;7.75;5.72;;;;;;;14.74;100.00;96751.19;6311521;22;20487;-76
2023/10/03 08:21:59;;;;;;;7.25;5.60;;;;;;;14.88;100.00;96757.84;6312497;22;20010;-77
2023/10/03 08:24:28;;;;;;;7.88;5.97;;;;;;;15.03;100.00;96763.53;6340407;22;20010;-75
2023/10/03 08:27:01;;;;;;;8.43;6.00;;;;;;;15.27;100.00;96778.97;6314302;22;20010;-76
2023/10/03 08:29:32;;;;;;;10.57;6.40;;;;;;;15.46;100.00;96785.16;6342224;22;20071;-76
2023/10/03 08:32:04;;;;;;;6.57;5.95;;;;;;;15.57;100.00;96782.31;6263813;22;20492;-77
2023/10/03 08:34:43;;;;;;;6.75;6.10;;;;;;;15.67;100.00;96779.63;6316326;22;19998;-76
2023/10/03 08:37:22;;;;;;;6.68;6.05;;;;;;;15.77;100.00;96763.66;6340502;22;20006;-76
2023/10/03 08:39:54;;;;;;;7.25;6.40;;;;;;;15.80;100.00;96762.50;6313353;22;20200;-75
2023/10/03 08:42:35;;;;;;;6.97;6.28;;;;;;;15.88;100.00;96767.91;6263088;22;20003;-76
2023/10/03 08:48:08;;;;;;;7.00;6.30;;;;;;;16.09;100.00;96780.13;6312487;22;20009;-76
2023/10/03 08:50:46;;;;;;;9.63;7.47;;;;;;;16.16;100.00;96771.41;6312667;22;20365;-76
2023/10/03 08:53:26;;;;;;;10.68;6.35;;;;;;;16.32;100.00;96773.38;6341057;22;20002;-76
2023/10/03 08:56:03;;;;;;;9.43;6.55;;;;;;;16.43;100.00;96772.31;6341809;22;20309;-76
2023/10/03 08:58:29;;;;;;;7.45;6.13;;;;;;;16.57;100.00;96754.16;6340200;22;20002;-76
2023/10/03 09:01:07;;;;;;;7.30;6.57;;;;;;;16.68;100.00;96766.38;6313877;22;20113;-78
2023/10/03 09:03:48;;;;;;;7.53;6.00;;;;;;;16.77;100.00;96760.13;6316992;22;19998;-76
2023/10/03 09:06:43;;;;;;;7.65;6.35;;;;;;;16.91;100.00;96753.41;6340606;22;19999;-76
2023/10/03 09:09:13;;;;;;;9.75;6.55;;;;;;;17.00;100.00;96767.63;6310004;22;20010;-75
2023/10/03 09:11:42;;;;;;;11.48;6.00;;;;;;;17.11;100.00;96764.69;6341630;22;19991;-75
2023/10/03 09:14:12;;;;;;;6.28;5.68;;;;;;;17.20;100.00;96759.44;6340515;22;19999;-76
2023/10/03 09:16:39;;;;;;;11.35;5.95;;;;;;;17.25;100.00;96750.00;6341425;22;20025;-75
2023/10/03 09:19:06;;;;;;;7.70;6.80;;;;;;;17.33;100.00;96750.03;6340233;22;19999;-76
2023/10/03 09:21:39;;;;;;;6.70;6.00;;;;;;;17.50;100.00;96712.00;6342144;22;20006;-76
2023/10/03 09:24:17;;;;;;;7.60;6.28;;;;;;;17.62;100.00;96708.06;6313946;22;20085;-76
2023/10/03 09:26:51;;;;;;;7.95;6.32;;;;;;;17.74;100.00;96720.06;6289226;22;20045;-76
2023/10/03 09:29:18;;;;;;;7.87;5.93;;;;;;;17.94;100.00;96721.66;6339978;22;20006;-77
2023/10/03 09:31:50;;;;;;;7.10;6.40;;;;;;;18.21;100.00;96677.06;6341138;22;20044;-75
2023/10/03 09:34:32;;;;;;;8.23;6.67;;;;;;;18.39;100.00;96677.75;6314624;22;20006;-76
2023/10/03 09:37:03;;;;;;;8.85;5.85;;;;;;;18.54;100.00;96667.22;6340780;22;20225;-76
2023/10/03 09:39:48;;;;;;;9.35;6.13;;;;;;;18.57;100.00;96658.06;6313360;22;20009;-76
2023/10/03 09:42:16;;;;;;;9.23;6.38;;;;;;;18.64;100.00;96664.38;6317323;22;20479;-76
2023/10/03 09:44:51;;;;;;;7.40;6.00;;;;;;;18.79;100.00;96669.00;6341318;22;19995;-76
2023/10/03 09:47:18;;;;;;;7.05;5.72;;;;;;;18.88;100.00;96684.00;6315183;22;20006;-75
2023/10/03 09:49:50;;;;;;;10.48;5.80;;;;;;;19.08;100.00;96655.13;6313989;22;20003;-78
2023/10/03 09:52:22;;;;;;;6.32;5.68;;;;;;;19.01;100.00;96652.34;6341871;22;19991;-77
2023/10/03 09:54:59;;;;;;;7.25;5.82;;;;;;;19.01;100.00;96651.50;6289825;22;20029;-77
2023/10/03 09:57:28;;;;;;;7.15;5.78;;;;;;;19.18;100.00;96650.44;6315741;22;20060;-85
2023/10/03 09:59:55;;;;;;;7.82;5.78;;;;;;;19.21;100.00;96648.41;6313961;22;20428;-79
2023/10/03 10:02:35;;;;;;;9.43;5.78;;;;;;;19.17;100.00;96659.44;6342097;22;20435;-85
2023/10/03 10:05:20;;;;;;;6.13;5.53;;;;;;;19.27;100.00;96655.72;6341343;22;20006;-81
2023/10/03 10:08:21;;;;;;;6.50;5.80;;;;;;;19.37;100.00;96656.38;6315686;22;20078;-75
2023/10/03 10:11:07;;;;;;;8.60;5.80;;;;;;;19.41;100.00;96652.34;6314785;22;19999;-81
2023/10/03 10:13:37;;;;;;;5.82;5.32;;;;;;;19.50;100.00;96660.28;6341794;22;20007;-78
2023/10/03 10:18:45;;;;;;;8.18;5.40;;;;;;;19.75;100.00;96653.81;6314215;22;19998;-81
2023/10/03 10:21:37;;;;;;;8.50;5.90;;;;;;;19.84;100.00;96661.78;6313976;22;20196;-81
2023/10/03 10:24:15;;;;;;;8.07;6.47;;;;;;;19.95;100.00;96653.38;6316608;22;20005;-79
2023/10/03 10:26:42;;;;;;;6.80;5.40;;;;;;;19.97;100.00;96648.69;6314591;22;20006;-83
2023/10/03 10:29:08;;;;;;;5.97;4.72;;;;;;;20.07;100.00;96656.47;6341214;22;20078;-80
2023/10/03 10:31:57;;;;;;;6.15;5.13;;;;;;;20.17;100.00;96658.91;6314571;22;20021;-84
2023/10/03 10:34:29;;;;;;;6.45;5.68;;;;;;;20.13;100.00;96657.59;6341802;22;19999;-83
2023/10/03 10:37:01;;;;;;;6.43;5.45;;;;;;;20.10;100.00;96653.44;6313880;22;19998;-82
2023/10/03 10:39:56;;;;;;;5.60;5.05;;;;;;;20.23;100.00;96649.34;6313940;22;20006;-83
2023/10/03 10:42:29;;;;;;;6.05;5.45;;;;;;;20.24;100.00;96654.53;6342024;22;20352;-81
2023/10/03 10:45:14;;;;;;;5.97;5.13;;;;;;;20.50;100.00;96655.97;6341792;22;20386;-78
2023/10/03 10:47:58;;;;;;;8.30;5.53;;;;;;;20.64;100.00;96653.47;6342254;22;19999;-75
2023/10/03 10:50:27;;;;;;;11.45;5.63;;;;;;;20.71;100.00;96660.59;6341825;22;19995;-77
2023/10/03 10:53:02;;;;;;;7.47;5.47;;;;;;;20.78;100.00;96655.34;6313927;22;20006;-72
2023/10/03 10:55:33;;;;;;;5.60;5.10;;;;;;;20.84;100.00;96657.31;6316772;22;20009;-77
2023/10/03 10:58:15;;;;;;;7.07;5.53;;;;;;;20.88;100.00;96672.00;6340985;22;20336;-75
2023/10/03 11:00:41;;;;;;;6.20;5.50;;;;;;;20.89;100.00;96670.16;6315250;22;20415;-76
2023/10/03 11:03:13;;;;;;;7.03;5.22;;;;;;;21.04;100.00;96665.66;6313628;22;20003;-77
2023/10/03 11:05:50;;;;;;;8.15;5.80;;;;;;;21.18;100.00;96668.50;6313608;22;20002;-79
2023/10/03 11:08:21;;;;;;;6.10;5.10;;;;;;;21.17;100.00;96662.31;6314332;22;20006;-75
2023/10/03 11:10:58;;;;;;;7.85;5.53;;;;;;;21.27;100.00;96654.00;6313270;22;20010;-77
2023/10/03 11:13:27;;;;;;;7.10;5.38;;;;;;;21.34;100.00;96648.75;6261772;22;20069;-72
2023/10/03 11:16:04;;;;;;;7.60;5.30;;;;;;;21.41;100.00;96651.47;6285839;22;20023;-79
2023/10/03 11:18:34;;;;;;;7.57;5.03;;;;;;;21.51;100.00;96645.84;6309089;22;20393;-71
2023/10/03 11:21:10;;;;;;;5.30;4.90;;;;;;;21.60;100.00;96644.72;6313756;22;20484;-74
2023/10/03 11:23:35;;;;;;;5.50;4.90;;;;;;;21.66;100.00;96643.16;6313038;22;20431;-76
2023/10/03 11:26:07;;;;;;;6.15;5.35;;;;;;;21.72;100.00;96643.22;6313583;22;20082;-77
2023/10/03 11:29:05;;;;;;;6.07;5.22;;;;;;;21.80;100.00;96644.97;6313825;22;19999;-73
2023/10/03 11:31:43;;;;;;;6.90;5.18;;;;;;;21.84;100.00;96640.88;6341279;22;20009;-78
2023/10/03 11:34:10;;;;;;;5.75;5.25;;;;;;;21.86;100.00;96643.38;6313628;22;20002;-76
2023/10/03 11:36:51;;;;;;;7.07;4.75;;;;;;;21.95;100.00;96652.13;6288876;22;20022;-73
2023/10/03 11:39:28;;;;;;;7.93;5.30;;;;;;;21.84;100.00;96643.56;6288953;22;20454;-73
2023/10/03 11:41:54;;;;;;;6.60;4.78;;;;;;;21.86;100.00;96644.19;6340613;22;20007;-76
2023/10/03 11:44:20;;;;;;;7.80;4.80;;;;;;;21.93;100.00;96649.63;6312769;22;20003;-78
2023/10/03 11:47:00;;;;;;;15.80;4.88;;;;;;;21.93;100.00;96646.13;6313045;22;20002;-75